Time;durP1;ratioP1;P1;durP2;ratioP2;P2;SDS_P1;SDS_P2;PMS_P1;PMS_P2;Temp;Humidity;BMP_temperature;BMP_pressure;BME280_temperature;BME280_humidity;BME280_pressure;Samples;Min_cycle;Max_cycle;Signal;HPM_P1;HPM_P2
2023/07/31 00:00:25;;;;;;;4.38;0.90;;;24.10;42.50;;;;;;4950329;28;20038;-69
2023/07/31 00:02:54;;;;;;;2.97;0.98;;;24.10;43.10;;;;;;4948870;28;20035;-69
2023/07/31 00:05:22;;;;;;;2.03;0.95;;;24.30;43.40;;;;;;4950347;28;20043;-69
2023/07/31 00:07:49;;;;;;;2.10;0.70;;;24.30;43.80;;;;;;4951564;28;20544;-69
2023/07/31 00:10:16;;;;;;;5.28;0.98;;;24.90;42.00;;;;;;4949017;28;20091;-68
2023/07/31 00:12:45;;;;;;;3.05;0.95;;;25.10;41.10;;;;;;4953845;28;20034;-69
2023/07/31 00:15:14;;;;;;;2.15;0.50;;;24.90;41.20;;;;;;4951526;28;20031;-68
2023/07/31 00:17:41;;;;;;;1.48;0.50;;;25.10;40.10;;;;;;4967940;28;20027;-69
2023/07/31 00:20:09;;;;;;;1.33;0.50;;;25.10;40.10;;;;;;4949563;28;20027;-69
2023/07/31 00:22:37;;;;;;;2.83;0.57;;;25.40;40.20;;;;;;4945069;28;20035;-70
2023/07/31 00:25:06;;;;;;;2.97;0.60;;;25.90;39.80;;;;;;4948100;28;20059;-69
2023/07/31 00:27:33;;;;;;;1.38;0.63;;;26.20;38.70;;;;;;4948262;28;20028;-70
2023/07/31 00:30:01;;;;;;;1.45;0.60;;;25.80;39.70;;;;;;4949181;28;20605;-70
2023/07/31 00:32:28;;;;;;;1.48;0.80;;;25.40;39.70;;;;;;4945233;28;20118;-69
2023/07/31 00:34:55;;;;;;;3.50;1.10;;;24.70;40.10;;;;;;4949017;28;20481;-70
2023/07/31 00:37:23;;;;;;;4.30;0.57;;;24.60;40.40;;;;;;4944156;28;20027;-71
2023/07/31 00:39:50;;;;;;;1.63;0.60;;;24.70;40.50;;;;;;4952422;28;20028;-70
2023/07/31 00:42:17;;;;;;;1.50;0.60;;;25.00;39.30;;;;;;4946521;28;20105;-70
2023/07/31 00:44:45;;;;;;;1.67;0.52;;;25.90;37.90;;;;;;4949384;28;20032;-70
2023/07/31 00:47:12;;;;;;;4.50;0.70;;;25.80;38.00;;;;;;4945070;28;20034;-69
2023/07/31 00:49:39;;;;;;;3.08;0.68;;;25.50;38.90;;;;;;4930588;28;20649;-70
2023/07/31 00:52:07;;;;;;;1.10;0.50;;;26.00;38.70;;;;;;4946585;28;20461;-70
2023/07/31 00:54:35;;;;;;;2.35;0.47;;;26.50;37.40;;;;;;4948464;28;20027;-69
2023/07/31 00:57:02;;;;;;;2.90;0.60;;;26.10;37.30;;;;;;4944414;28;20047;-69
2023/07/31 00:59:30;;;;;;;0.82;0.43;;;26.20;38.80;;;;;;4963313;28;20039;-68
2023/07/31 01:01:57;;;;;;;4.90;0.70;;;26.30;37.90;;;;;;4947647;28;20540;-68
2023/07/31 01:04:24;;;;;;;1.40;0.68;;;26.90;37.40;;;;;;4952161;28;20035;-67
2023/07/31 01:07:21;;;;;;;1.13;0.40;;;26.30;36.00;;;;;;4945024;28;20035;-68
2023/07/31 01:10:07;;;;;;;1.30;0.73;;;26.30;36.50;;;;;;4947246;28;20051;-67
2023/07/31 01:12:38;;;;;;;1.42;0.55;;;25.50;36.90;;;;;;4950556;28;20487;-69
2023/07/31 01:15:14;;;;;;;2.20;0.57;;;25.90;37.40;;;;;;4950715;28;20023;-68
2023/07/31 01:17:42;;;;;;;1.27;0.70;;;25.80;37.60;;;;;;4950946;28;20043;-67
2023/07/31 01:20:21;;;;;;;3.28;0.63;;;26.10;36.60;;;;;;4949473;28;20031;-67
2023/07/31 01:23:16;;;;;;;0.50;0.30;;;26.30;36.20;;;;;;4949944;28;20039;-67
2023/07/31 01:26:15;;;;;;;1.80;0.60;;;25.90;36.70;;;;;;4951771;28;20126;-68
2023/07/31 01:28:52;;;;;;;3.90;0.55;;;26.00;36.50;;;;;;4952137;28;20173;-68
2023/07/31 01:31:24;;;;;;;2.30;0.80;;;25.50;36.30;;;;;;4950249;28;20045;-68
2023/07/31 01:33:58;;;;;;;2.35;0.82;;;25.50;37.50;;;;;;4948245;28;20038;-68
2023/07/31 01:36:26;;;;;;;1.13;0.55;;;25.90;36.80;;;;;;4949985;28;20031;-69
2023/07/31 01:38:57;;;;;;;1.67;0.65;;;25.90;35.90;;;;;;4942855;28;20059;-68
2023/07/31 01:41:25;;;;;;;1.13;0.50;;;25.50;37.70;;;;;;4941869;28;20405;-69
2023/07/31 01:43:52;;;;;;;1.38;0.60;;;25.40;37.90;;;;;;4945071;28;20031;-69
2023/07/31 01:46:19;;;;;;;1.50;0.50;;;26.10;38.20;;;;;;4951980;28;20041;-68
2023/07/31 01:48:47;;;;;;;0.82;0.50;;;26.80;36.40;;;;;;4962901;28;20493;-66
2023/07/31 01:51:14;;;;;;;5.13;0.70;;;26.90;36.30;;;;;;4950817;28;20063;-67
2023/07/31 01:53:41;;;;;;;2.55;0.68;;;27.10;36.50;;;;;;4950392;28;20031;-67
2023/07/31 01:56:09;;;;;;;2.20;0.50;;;27.10;36.60;;;;;;4949250;28;20035;-67
2023/07/31 01:58:36;;;;;;;1.73;0.60;;;27.00;36.10;;;;;;4948286;28;20059;-67
2023/07/31 02:01:03;;;;;;;4.57;0.60;;;27.10;36.60;;;;;;4951727;28;20109;-67
2023/07/31 02:03:31;;;;;;;1.50;0.45;;;27.30;36.20;;;;;;4942767;28;20485;-68
2023/07/31 02:05:58;;;;;;;3.60;0.80;;;27.20;35.80;;;;;;4946511;28;20507;-68
2023/07/31 02:08:25;;;;;;;1.25;0.50;;;26.50;37.50;;;;;;4951108;28;20500;-68
2023/07/31 02:10:54;;;;;;;1.27;0.50;;;26.90;36.40;;;;;;4951051;28;20030;-68
2023/07/31 02:13:21;;;;;;;2.13;0.70;;;27.30;36.30;;;;;;4933672;29;20082;-68
2023/07/31 02:15:50;;;;;;;1.92;0.40;;;26.70;36.00;;;;;;4943266;28;20027;-67
2023/07/31 02:18:18;;;;;;;1.92;0.60;;;26.20;36.60;;;;;;4953058;28;20437;-69
2023/07/31 02:20:49;;;;;;;1.52;0.30;;;25.50;37.70;;;;;;4947920;28;20027;-69
2023/07/31 02:23:18;;;;;;;1.90;0.57;;;24.90;37.80;;;;;;4937212;28;20400;-67
2023/07/31 02:25:46;;;;;;;4.70;0.57;;;25.10;38.70;;;;;;4949956;28;20536;-68
2023/07/31 02:28:13;;;;;;;4.07;0.95;;;25.10;38.00;;;;;;4951315;28;20110;-69
2023/07/31 02:30:44;;;;;;;2.45;0.70;;;25.50;38.20;;;;;;4953245;28;20023;-68
2023/07/31 02:33:11;;;;;;;2.63;0.40;;;25.90;37.10;;;;;;4949240;28;20114;-68
2023/07/31 02:35:38;;;;;;;3.92;0.52;;;25.90;38.90;;;;;;4950603;28;20449;-70
2023/07/31 02:38:06;;;;;;;2.28;0.88;;;26.60;36.80;;;;;;4950390;28;20058;-68
2023/07/31 02:40:33;;;;;;;2.10;0.50;;;26.60;36.10;;;;;;4950134;28;20071;-68
2023/07/31 02:43:00;;;;;;;3.30;0.70;;;26.40;38.30;;;;;;4951009;28;20035;-69
2023/07/31 02:45:28;;;;;;;1.08;0.50;;;26.90;36.80;;;;;;4951478;28;20023;-69
2023/07/31 02:47:55;;;;;;;0.57;0.32;;;27.00;36.60;;;;;;4951097;28;20031;-68
2023/07/31 02:50:22;;;;;;;1.30;0.50;;;27.10;35.90;;;;;;4947872;28;20023;-68
2023/07/31 02:52:50;;;;;;;1.77;0.38;;;26.80;37.00;;;;;;4948629;28;20034;-68
2023/07/31 02:55:17;;;;;;;2.13;0.32;;;26.40;35.80;;;;;;4951550;28;20035;-68
2023/07/31 02:57:45;;;;;;;1.38;0.38;;;26.50;36.30;;;;;;4951110;28;20141;-68
2023/07/31 03:00:12;;;;;;;4.63;0.60;;;26.60;36.20;;;;;;4949381;28;20373;-68
2023/07/31 03:02:39;;;;;;;0.47;0.40;;;26.40;36.30;;;;;;4952406;28;20042;-69
2023/07/31 03:05:07;;;;;;;0.73;0.32;;;26.20;36.10;;;;;;4951925;28;20027;-68
2023/07/31 03:07:34;;;;;;;0.57;0.43;;;26.10;37.50;;;;;;4944818;28;20035;-68
2023/07/31 03:10:02;;;;;;;2.17;0.38;;;26.00;36.90;;;;;;4949521;28;20043;-68
2023/07/31 03:12:29;;;;;;;1.45;0.40;;;26.40;37.50;;;;;;4946883;28;20031;-68
2023/07/31 03:14:56;;;;;;;1.27;0.47;;;26.60;35.90;;;;;;4951507;28;20031;-68
2023/07/31 03:17:24;;;;;;;2.53;0.55;;;26.40;36.30;;;;;;4941111;28;20410;-68
2023/07/31 03:19:51;;;;;;;1.10;0.40;;;26.00;36.50;;;;;;4955643;28;20201;-68
2023/07/31 03:22:19;;;;;;;3.15;0.50;;;25.90;36.80;;;;;;4951098;28;20045;-68
2023/07/31 03:24:46;;;;;;;2.53;0.40;;;25.50;37.00;;;;;;4952909;28;20062;-69
2023/07/31 03:27:13;;;;;;;2.72;0.43;;;25.80;37.30;;;;;;4958094;28;20034;-68
2023/07/31 03:29:40;;;;;;;2.35;0.38;;;25.90;37.10;;;;;;4954754;28;20047;-68
2023/07/31 03:32:08;;;;;;;1.45;0.40;;;26.10;37.60;;;;;;4949452;28;20083;-68
2023/07/31 03:34:35;;;;;;;2.35;0.63;;;25.90;38.60;;;;;;4953149;28;20034;-69
2023/07/31 03:37:04;;;;;;;1.88;0.47;;;25.80;37.40;;;;;;4954311;28;20042;-68
2023/07/31 03:39:32;;;;;;;1.27;0.30;;;25.20;37.50;;;;;;4953463;28;20035;-69
2023/07/31 03:41:59;;;;;;;2.10;0.45;;;25.10;38.60;;;;;;4949596;28;20423;-68
2023/07/31 03:44:26;;;;;;;2.03;0.40;;;24.90;37.50;;;;;;4955979;28;20397;-67
2023/07/31 03:46:54;;;;;;;1.60;0.40;;;24.60;38.20;;;;;;4954756;28;20041;-68
2023/07/31 03:49:21;;;;;;;1.85;0.50;;;24.60;38.00;;;;;;4953198;28;20392;-67
2023/07/31 03:51:48;;;;;;;2.97;0.60;;;24.40;40.30;;;;;;4953328;28;20035;-69
2023/07/31 03:54:16;;;;;;;0.50;0.40;;;24.40;39.70;;;;;;4952763;28;20031;-68
2023/07/31 03:56:43;;;;;;;3.17;0.40;;;24.40;39.00;;;;;;4954208;28;20033;-68
2023/07/31 03:59:10;;;;;;;3.35;0.50;;;24.40;39.30;;;;;;4948628;28;20037;-68
2023/07/31 04:01:38;;;;;;;2.47;0.40;;;24.20;39.50;;;;;;4956517;28;20038;-68
2023/07/31 04:04:05;;;;;;;1.80;0.60;;;24.10;39.50;;;;;;4957074;28;20465;-69
2023/07/31 04:06:32;;;;;;;0.90;0.30;;;24.10;39.00;;;;;;4954595;28;20038;-68
2023/07/31 04:09:00;;;;;;;1.10;0.28;;;24.00;38.40;;;;;;4953504;28;20027;-69
2023/07/31 04:11:27;;;;;;;2.05;0.38;;;24.00;39.00;;;;;;4951205;28;20083;-68
2023/07/31 04:13:54;;;;;;;0.40;0.30;;;23.90;38.30;;;;;;4954477;28;20031;-69
2023/07/31 04:16:22;;;;;;;0.52;0.38;;;23.90;38.90;;;;;;4949184;28;20078;-67
2023/07/31 04:18:49;;;;;;;3.70;0.50;;;23.90;39.70;;;;;;4950388;28;20039;-68
2023/07/31 04:21:17;;;;;;;1.02;0.40;;;23.80;39.20;;;;;;4952766;28;20019;-67
2023/07/31 04:23:45;;;;;;;1.42;0.30;;;23.50;39.80;;;;;;4951734;28;20039;-67
2023/07/31 04:26:12;;;;;;;2.53;0.35;;;23.30;40.10;;;;;;4952718;28;20035;-69
2023/07/31 04:28:39;;;;;;;1.98;0.68;;;23.10;40.50;;;;;;4946896;28;20035;-68
2023/07/31 04:31:06;;;;;;;3.22;0.40;;;23.10;40.10;;;;;;4952310;28;20054;-69
2023/07/31 04:33:34;;;;;;;2.45;0.98;;;22.90;40.50;;;;;;4944536;28;20031;-68
2023/07/31 04:36:01;;;;;;;2.63;0.63;;;23.00;39.90;;;;;;4951469;28;20439;-69
2023/07/31 04:38:29;;;;;;;1.88;0.52;;;22.90;40.80;;;;;;4950820;28;20027;-67
2023/07/31 04:40:56;;;;;;;0.73;0.35;;;22.90;41.10;;;;;;4953079;28;20023;-68
2023/07/31 04:43:23;;;;;;;1.77;0.45;;;22.80;41.00;;;;;;4950286;28;20039;-68
2023/07/31 04:45:51;;;;;;;2.83;0.52;;;22.70;41.80;;;;;;4953855;28;20114;-68
2023/07/31 04:48:18;;;;;;;1.73;0.50;;;22.80;41.10;;;;;;4948182;28;20589;-68
2023/07/31 04:50:45;;;;;;;1.70;0.57;;;22.70;41.50;;;;;;4949199;28;20117;-69
2023/07/31 04:53:12;;;;;;;1.27;0.30;;;22.70;41.50;;;;;;4951094;28;20513;-68
2023/07/31 04:55:40;;;;;;;5.10;0.57;;;22.60;41.40;;;;;;4950791;28;20030;-69
2023/07/31 04:58:07;;;;;;;2.10;0.88;;;22.60;41.10;;;;;;4948525;28;20523;-68
2023/07/31 05:00:35;;;;;;;3.92;0.50;;;22.60;41.80;;;;;;4945227;28;20049;-68
2023/07/31 05:03:02;;;;;;;3.28;0.60;;;22.50;41.80;;;;;;4949787;28;20122;-69
2023/07/31 05:05:30;;;;;;;2.30;0.60;;;22.50;41.80;;;;;;4947250;28;20177;-66
2023/07/31 05:07:57;;;;;;;2.70;0.57;;;22.40;41.80;;;;;;4962236;28;20523;-67
2023/07/31 05:10:24;;;;;;;1.02;0.40;;;22.40;42.10;;;;;;4951904;28;20027;-68
2023/07/31 05:12:52;;;;;;;2.55;0.57;;;22.40;41.80;;;;;;4950229;28;20384;-69
2023/07/31 05:15:19;;;;;;;1.95;0.52;;;22.40;41.70;;;;;;4952856;28;20035;-68
2023/07/31 05:17:46;;;;;;;0.60;0.20;;;22.30;41.20;;;;;;4950256;28;20138;-68
2023/07/31 05:20:14;;;;;;;0.73;0.20;;;22.30;41.50;;;;;;4950201;28;20027;-68
2023/07/31 05:22:42;;;;;;;2.80;0.65;;;22.20;41.90;;;;;;4949327;28;20043;-68
2023/07/31 05:25:09;;;;;;;2.65;0.25;;;22.20;41.70;;;;;;4952686;28;20035;-68
2023/07/31 05:27:37;;;;;;;1.52;0.57;;;22.30;41.70;;;;;;4952923;28;20410;-71
2023/07/31 05:30:05;;;;;;;1.33;0.38;;;22.30;41.50;;;;;;4950392;28;20038;-68
2023/07/31 05:32:32;;;;;;;0.52;0.20;;;22.30;42.10;;;;;;4946794;28;20039;-68
2023/07/31 05:35:00;;;;;;;3.03;0.30;;;22.40;41.60;;;;;;4950291;28;20059;-67
2023/07/31 05:37:27;;;;;;;0.85;0.38;;;22.40;41.20;;;;;;4947627;28;20034;-68
2023/07/31 05:39:55;;;;;;;1.30;0.30;;;22.40;41.70;;;;;;4951656;28;20031;-67
2023/07/31 05:42:22;;;;;;;0.88;0.40;;;22.40;41.70;;;;;;4952333;28;20089;-67
2023/07/31 05:44:49;;;;;;;0.82;0.35;;;22.30;41.70;;;;;;4953452;28;20118;-68
2023/07/31 05:47:17;;;;;;;1.60;0.38;;;22.20;41.80;;;;;;4948159;28;20110;-68
2023/07/31 05:49:45;;;;;;;2.38;0.68;;;22.30;41.90;;;;;;4957130;28;20063;-69
2023/07/31 05:52:12;;;;;;;2.70;0.95;;;22.30;42.00;;;;;;4949279;28;20038;-68
2023/07/31 05:54:39;;;;;;;1.00;0.40;;;22.20;41.70;;;;;;4952617;28;20027;-69
2023/07/31 05:57:07;;;;;;;4.90;0.82;;;22.30;41.80;;;;;;4942806;28;20323;-69
2023/07/31 05:59:34;;;;;;;2.72;0.47;;;22.30;41.70;;;;;;4953698;28;20027;-69
2023/07/31 06:02:02;;;;;;;1.65;0.40;;;22.40;42.10;;;;;;4942493;28;20088;-68
2023/07/31 06:04:29;;;;;;;3.20;0.30;;;22.70;41.60;;;;;;4951480;28;20027;-68
2023/07/31 06:06:57;;;;;;;1.25;0.30;;;22.80;41.20;;;;;;4935822;28;20621;-69
2023/07/31 06:09:25;;;;;;;1.20;0.40;;;22.70;40.70;;;;;;4949340;28;20054;-69
2023/07/31 06:11:53;;;;;;;4.32;0.50;;;22.80;41.10;;;;;;4951153;28;20023;-69
2023/07/31 06:14:20;;;;;;;3.40;0.40;;;22.80;41.20;;;;;;4952295;28;20033;-69
2023/07/31 06:16:48;;;;;;;1.23;0.40;;;22.60;41.20;;;;;;4940788;28;20035;-68
2023/07/31 06:19:15;;;;;;;5.05;0.40;;;22.70;41.50;;;;;;4947041;28;20043;-69
2023/07/31 06:21:43;;;;;;;2.60;0.50;;;22.60;41.70;;;;;;4948491;28;20054;-68
2023/07/31 06:24:12;;;;;;;4.63;0.90;;;22.60;41.80;;;;;;4945246;28;20059;-69
2023/07/31 06:26:39;;;;;;;3.25;0.60;;;22.60;42.00;;;;;;4947863;28;20038;-69
2023/07/31 06:29:07;;;;;;;2.17;0.57;;;22.50;42.40;;;;;;4951455;28;20034;-69
2023/07/31 06:31:34;;;;;;;3.35;0.50;;;22.70;42.00;;;;;;4949950;28;21608;-69
2023/07/31 06:34:02;;;;;;;2.33;0.55;;;22.60;42.50;;;;;;4943291;28;20042;-68
2023/07/31 06:36:29;;;;;;;1.95;0.55;;;22.60;42.50;;;;;;4942819;28;20031;-69
2023/07/31 06:38:56;;;;;;;1.00;0.47;;;22.50;42.30;;;;;;4949988;28;20039;-69
2023/07/31 06:41:24;;;;;;;1.08;0.50;;;22.40;42.10;;;;;;4949142;28;20035;-70
2023/07/31 06:43:51;;;;;;;4.88;1.08;;;22.30;42.20;;;;;;4951222;28;20122;-68
2023/07/31 06:46:19;;;;;;;1.33;0.60;;;22.10;42.70;;;;;;4952006;28;20126;-69
2023/07/31 06:48:46;;;;;;;2.92;0.60;;;21.90;43.00;;;;;;4945920;28;20031;-69
2023/07/31 06:51:13;;;;;;;2.55;0.63;;;21.70;43.30;;;;;;4949229;28;20038;-69
2023/07/31 06:53:41;;;;;;;2.63;0.60;;;21.50;43.80;;;;;;4950695;28;20477;-69
2023/07/31 06:56:08;;;;;;;3.50;1.00;;;21.20;45.40;;;;;;4952622;28;20074;-69
2023/07/31 06:58:35;;;;;;;3.20;0.77;;;21.10;44.70;;;;;;4954258;28;20087;-69
2023/07/31 07:01:03;;;;;;;7.45;0.90;;;20.90;45.10;;;;;;4952346;28;20038;-68
2023/07/31 07:03:31;;;;;;;3.20;0.82;;;20.80;45.40;;;;;;4950440;28;20039;-68
2023/07/31 07:05:58;;;;;;;3.00;0.73;;;20.60;45.70;;;;;;4948767;28;20034;-68
2023/07/31 07:08:26;;;;;;;3.97;0.90;;;20.50;46.50;;;;;;4952667;28;20070;-67
2023/07/31 07:10:53;;;;;;;1.98;0.90;;;20.40;46.70;;;;;;4954843;28;20041;-69
2023/07/31 07:13:21;;;;;;;2.28;0.95;;;20.20;47.30;;;;;;4954197;28;20030;-69
2023/07/31 07:15:52;;;;;;;4.43;0.70;;;20.10;47.20;;;;;;4954367;28;20034;-69
2023/07/31 07:18:21;;;;;;;3.53;1.30;;;20.00;47.20;;;;;;4945944;28;20670;-69
2023/07/31 07:20:52;;;;;;;2.72;0.88;;;19.90;47.90;;;;;;4952203;28;20027;-67
2023/07/31 07:23:20;;;;;;;3.88;1.20;;;19.80;48.50;;;;;;4951951;28;20082;-68
2023/07/31 07:25:48;;;;;;;6.35;0.70;;;19.70;50.10;;;;;;4946391;28;20541;-70
2023/07/31 07:28:16;;;;;;;2.85;0.70;;;19.50;49.90;;;;;;4957311;28;20035;-72
2023/07/31 07:30:43;;;;;;;2.83;0.73;;;19.30;51.20;;;;;;4961242;28;20074;-71
2023/07/31 07:33:12;;;;;;;2.00;0.75;;;19.10;51.40;;;;;;4954026;28;20061;-70
2023/07/31 07:35:39;;;;;;;2.17;1.10;;;18.90;52.20;;;;;;4951455;28;20039;-69
2023/07/31 07:38:06;;;;;;;2.25;0.90;;;18.70;53.00;;;;;;4949359;28;20601;-70
2023/07/31 07:40:38;;;;;;;8.30;1.50;;;18.50;53.40;;;;;;4953488;28;20028;-71
2023/07/31 07:43:06;;;;;;;7.28;1.08;;;18.30;53.80;;;;;;4957927;28;20085;-71
2023/07/31 07:45:33;;;;;;;4.18;1.63;;;18.20;53.70;;;;;;4952496;28;20090;-71
2023/07/31 07:48:00;;;;;;;4.18;1.90;;;18.10;54.00;;;;;;4953941;28;20078;-71
2023/07/31 07:50:27;;;;;;;4.10;1.77;;;18.00;54.00;;;;;;4954503;28;20034;-70
2023/07/31 07:52:55;;;;;;;2.17;1.20;;;17.90;54.20;;;;;;4953324;28;20034;-69
2023/07/31 07:55:22;;;;;;;3.53;1.40;;;17.90;53.60;;;;;;4952836;28;20066;-69
2023/07/31 07:57:50;;;;;;;3.15;1.40;;;17.90;54.30;;;;;;4955095;28;20133;-70
2023/07/31 08:00:18;;;;;;;4.07;2.22;;;17.90;54.10;;;;;;4951510;28;20031;-69
2023/07/31 08:02:45;;;;;;;10.38;7.22;;;17.80;54.10;;;;;;4952661;28;20126;-69
2023/07/31 08:05:13;;;;;;;10.75;4.80;;;17.80;54.20;;;;;;4956943;28;20031;-70
2023/07/31 08:07:40;;;;;;;10.65;5.15;;;17.70;56.10;;;;;;4950582;28;20023;-70
2023/07/31 08:10:07;;;;;;;9.77;4.85;;;17.40;56.40;;;;;;4950567;28;20035;-70
2023/07/31 08:12:35;;;;;;;24.85;10.88;;;17.30;56.90;;;;;;4950744;28;20492;-68
2023/07/31 08:15:02;;;;;;;35.00;16.80;;;17.20;57.00;;;;;;4947512;28;20031;-71
2023/07/31 08:17:30;;;;;;;28.50;14.45;;;17.10;57.20;;;;;;4947886;28;20070;-70
2023/07/31 08:19:58;;;;;;;25.85;13.20;;;17.10;57.50;;;;;;4955095;28;20038;-70
2023/07/31 08:22:25;;;;;;;23.73;11.77;;;17.00;57.30;;;;;;4953988;28;20126;-70
2023/07/31 08:24:53;;;;;;;22.30;10.07;;;16.90;58.00;;;;;;4946805;28;20093;-70
2023/07/31 08:27:20;;;;;;;13.50;7.25;;;16.80;57.60;;;;;;4949875;28;20098;-70
2023/07/31 08:29:47;;;;;;;17.27;6.40;;;16.80;57.40;;;;;;4952249;28;20035;-70
2023/07/31 08:32:15;;;;;;;7.07;3.83;;;16.70;57.70;;;;;;4953604;28;20019;-70
2023/07/31 08:34:42;;;;;;;8.55;3.53;;;16.70;57.60;;;;;;4956858;28;20050;-69
2023/07/31 08:37:11;;;;;;;7.53;3.08;;;16.70;57.40;;;;;;4952056;28;20408;-70
2023/07/31 08:39:39;;;;;;;7.03;2.50;;;16.80;57.40;;;;;;4956040;28;20015;-70
2023/07/31 08:42:09;;;;;;;5.78;2.15;;;16.70;57.00;;;;;;4949258;28;20519;-70
2023/07/31 08:44:37;;;;;;;5.18;2.85;;;16.70;57.30;;;;;;4953571;28;20113;-69
2023/07/31 08:47:05;;;;;;;8.85;4.13;;;16.70;57.10;;;;;;4950118;28;20027;-70
2023/07/31 08:49:34;;;;;;;10.45;4.50;;;16.70;57.10;;;;;;4952108;28;20433;-69
2023/07/31 08:52:01;;;;;;;7.72;4.03;;;16.70;57.50;;;;;;4947932;28;20201;-69
2023/07/31 08:54:30;;;;;;;6.25;3.72;;;16.70;57.40;;;;;;4953524;28;20028;-69
2023/07/31 08:57:00;;;;;;;7.93;3.58;;;16.60;57.20;;;;;;4950459;28;20491;-69
2023/07/31 08:59:31;;;;;;;14.93;4.65;;;16.60;57.40;;;;;;4952166;28;20349;-70
2023/07/31 09:02:06;;;;;;;12.25;4.95;;;16.60;57.70;;;;;;4951501;28;20036;-71
2023/07/31 09:04:34;;;;;;;11.23;5.32;;;16.50;58.00;;;;;;4948798;28;20078;-70
2023/07/31 09:07:04;;;;;;;10.45;5.22;;;16.50;58.10;;;;;;4952488;28;20086;-70
2023/07/31 09:09:32;;;;;;;12.38;4.65;;;16.50;58.20;;;;;;4952112;28;20038;-70
2023/07/31 09:12:00;;;;;;;9.18;4.15;;;16.50;58.40;;;;;;4952527;28;20046;-70
2023/07/31 09:14:27;;;;;;;12.18;5.05;;;16.50;58.30;;;;;;4968006;28;20042;-70
2023/07/31 09:16:56;;;;;;;11.68;5.20;;;16.40;58.60;;;;;;4949728;28;20032;-69
2023/07/31 09:19:39;;;;;;;17.52;4.97;;;16.30;59.60;;;;;;4952891;28;20027;-70
2023/07/31 09:22:07;;;;;;;13.02;4.57;;;16.20;61.60;;;;;;4941291;28;20035;-69
2023/07/31 09:24:35;;;;;;;12.57;5.10;;;15.90;62.50;;;;;;4949403;28;20023;-69
2023/07/31 09:27:03;;;;;;;13.63;6.00;;;15.80;63.20;;;;;;4949449;28;20354;-70
2023/07/31 09:29:31;;;;;;;24.70;7.53;;;15.70;64.10;;;;;;4953193;28;20023;-70
2023/07/31 09:31:58;;;;;;;21.30;7.63;;;15.40;64.50;;;;;;4950138;28;20027;-69
2023/07/31 09:34:41;;;;;;;18.83;6.90;;;15.30;65.20;;;;;;4953645;28;20038;-69
2023/07/31 09:37:08;;;;;;;19.08;6.13;;;15.30;65.80;;;;;;4948460;28;20081;-70
2023/07/31 09:39:47;;;;;;;20.65;5.35;;;15.20;65.90;;;;;;4952135;28;20082;-68
2023/07/31 09:42:14;;;;;;;13.02;5.13;;;15.00;66.70;;;;;;4952018;28;20451;-69
2023/07/31 09:44:42;;;;;;;13.57;5.22;;;14.80;67.20;;;;;;4951825;28;20031;-70
2023/07/31 09:47:30;;;;;;;15.65;6.18;;;14.80;67.60;;;;;;4951884;28;20028;-69
2023/07/31 09:49:57;;;;;;;14.65;5.60;;;14.80;67.40;;;;;;4952417;28;20027;-68
2023/07/31 09:52:27;;;;;;;33.25;17.73;;;14.80;68.00;;;;;;4949794;28;20043;-69
2023/07/31 09:54:55;;;;;;;16.95;7.35;;;14.80;67.90;;;;;;4956538;28;20038;-68
2023/07/31 09:57:25;;;;;;;12.02;5.90;;;14.80;68.10;;;;;;4949467;28;20102;-70
2023/07/31 09:59:54;;;;;;;5.15;2.67;;;14.80;68.00;;;;;;4916649;28;20046;-71
2023/07/31 10:02:23;;;;;;;4.82;2.63;;;14.80;68.20;;;;;;4924630;28;20050;-69
2023/07/31 10:05:00;;;;;;;5.65;2.33;;;14.80;68.50;;;;;;4925551;28;20031;-69
2023/07/31 10:07:30;;;;;;;7.13;2.28;;;14.80;68.70;;;;;;4950295;28;20042;-69
2023/07/31 10:10:02;;;;;;;9.80;2.30;;;14.70;69.00;;;;;;4951612;28;20031;-69
2023/07/31 10:12:29;;;;;;;7.60;1.90;;;14.80;69.20;;;;;;4946438;28;20030;-68
2023/07/31 10:14:59;;;;;;;3.55;1.70;;;14.80;69.00;;;;;;4951213;28;20024;-69
2023/07/31 10:17:29;;;;;;;9.30;1.55;;;14.80;68.90;;;;;;4949016;28;20086;-69
2023/07/31 10:20:04;;;;;;;3.15;1.58;;;14.70;69.40;;;;;;4951111;28;20023;-69
2023/07/31 10:22:32;;;;;;;4.47;1.92;;;14.70;69.70;;;;;;4950631;28;20086;-69
2023/07/31 10:25:01;;;;;;;5.80;1.75;;;14.60;69.80;;;;;;4944881;28;20066;-71
2023/07/31 10:27:28;;;;;;;2.97;1.40;;;14.50;70.00;;;;;;4945363;28;20485;-70
2023/07/31 10:30:01;;;;;;;6.97;1.80;;;14.50;70.40;;;;;;4950603;28;20031;-69
2023/07/31 10:32:30;;;;;;;5.40;1.40;;;14.40;70.50;;;;;;4952254;28;20027;-69
2023/07/31 10:34:58;;;;;;;6.18;1.60;;;14.40;70.60;;;;;;4948225;28;20034;-69
2023/07/31 10:37:45;;;;;;;6.05;2.15;;;14.30;70.50;;;;;;4950099;28;20038;-69
2023/07/31 10:40:39;;;;;;;4.97;2.28;;;14.30;70.80;;;;;;4933543;28;20465;-69
2023/07/31 10:43:08;;;;;;;8.90;2.60;;;14.40;70.60;;;;;;4945328;28;20054;-69
2023/07/31 10:45:38;;;;;;;7.68;2.85;;;14.20;70.60;;;;;;4949515;28;20408;-68
2023/07/31 10:48:15;;;;;;;9.68;3.10;;;14.10;71.30;;;;;;4949235;28;20027;-68
2023/07/31 10:50:56;;;;;;;10.43;3.88;;;14.00;71.80;;;;;;4955392;28;20023;-69
2023/07/31 10:53:41;;;;;;;7.68;3.63;;;13.90;72.20;;;;;;4949102;28;20031;-69
2023/07/31 10:56:13;;;;;;;12.85;3.40;;;13.80;72.50;;;;;;4955631;28;20394;-69
2023/07/31 10:58:44;;;;;;;7.13;2.88;;;14.10;72.00;;;;;;4951586;28;20047;-68
2023/07/31 11:01:11;;;;;;;10.13;2.78;;;14.10;71.90;;;;;;4951333;28;20035;-69
2023/07/31 11:03:52;;;;;;;8.20;2.38;;;13.60;73.00;;;;;;4951904;28;20388;-68
2023/07/31 11:06:19;;;;;;;5.55;2.30;;;13.40;74.00;;;;;;4963925;28;20054;-69
2023/07/31 11:08:49;;;;;;;7.72;2.67;;;13.30;74.40;;;;;;4950677;28;20027;-68
2023/07/31 11:11:20;;;;;;;5.22;2.17;;;13.20;74.90;;;;;;4950089;28;20066;-69
2023/07/31 11:13:52;;;;;;;5.35;2.35;;;13.00;75.60;;;;;;4941346;28;20032;-67
2023/07/31 11:16:22;;;;;;;7.57;2.55;;;13.00;76.00;;;;;;4949833;28;20032;-68
2023/07/31 11:18:51;;;;;;;5.15;1.75;;;12.90;76.50;;;;;;4955317;28;20027;-69
2023/07/31 11:21:21;;;;;;;5.80;1.90;;;13.00;75.30;;;;;;4950794;28;20032;-68
2023/07/31 11:23:51;;;;;;;5.03;2.00;;;13.00;74.90;;;;;;4952492;28;20051;-68
2023/07/31 11:26:19;;;;;;;4.82;2.45;;;12.90;75.20;;;;;;4951506;28;20540;-70
2023/07/31 11:28:51;;;;;;;10.18;2.90;;;12.80;75.70;;;;;;4950764;28;20031;-69
2023/07/31 11:31:19;;;;;;;6.18;2.50;;;12.70;76.80;;;;;;4953771;28;20110;-69
2023/07/31 11:33:46;;;;;;;5.00;1.73;;;12.60;77.70;;;;;;4947655;28;20078;-67
2023/07/31 11:36:22;;;;;;;6.03;1.98;;;12.50;77.30;;;;;;4952832;28;20027;-69
2023/07/31 11:38:49;;;;;;;5.88;2.42;;;12.50;78.00;;;;;;4960536;28;20027;-68
2023/07/31 11:41:17;;;;;;;5.22;1.98;;;12.70;77.60;;;;;;4956699;28;20146;-68
2023/07/31 11:43:47;;;;;;;6.32;2.30;;;12.80;77.20;;;;;;4956574;28;20031;-68
2023/07/31 11:46:14;;;;;;;7.95;2.40;;;12.70;77.30;;;;;;4954469;28;20039;-68
2023/07/31 11:48:42;;;;;;;6.53;3.00;;;12.50;78.00;;;;;;4952377;28;20031;-67
2023/07/31 11:51:14;;;;;;;6.60;2.70;;;12.20;78.40;;;;;;4951765;28;20050;-69
2023/07/31 11:53:50;;;;;;;6.38;2.65;;;12.10;79.30;;;;;;4958220;28;20066;-69
2023/07/31 11:56:20;;;;;;;7.28;2.90;;;11.90;79.90;;;;;;4958595;28;20031;-69
2023/07/31 11:58:49;;;;;;;5.97;2.95;;;12.00;79.80;;;;;;4954323;28;20102;-69
2023/07/31 12:01:19;;;;;;;6.38;2.10;;;11.90;79.60;;;;;;4956055;28;20042;-69
2023/07/31 12:03:48;;;;;;;7.47;2.90;;;11.80;79.80;;;;;;4953922;28;20039;-69
2023/07/31 12:06:15;;;;;;;8.60;2.30;;;11.70;79.90;;;;;;4955112;28;20481;-68
2023/07/31 12:08:43;;;;;;;9.93;1.92;;;11.60;79.80;;;;;;4971687;28;20428;-68
2023/07/31 12:11:11;;;;;;;5.03;2.30;;;11.50;80.20;;;;;;4955414;28;20027;-69
2023/07/31 12:13:38;;;;;;;6.78;2.40;;;11.50;80.90;;;;;;4944213;28;20031;-68
2023/07/31 12:16:05;;;;;;;4.05;2.60;;;11.40;81.30;;;;;;4952050;28;20118;-68
2023/07/31 12:18:39;;;;;;;6.40;2.65;;;11.30;81.30;;;;;;4946421;28;20023;-68
2023/07/31 12:21:11;;;;;;;6.93;2.75;;;11.30;81.70;;;;;;4952533;28;20094;-68
2023/07/31 12:23:41;;;;;;;8.98;3.45;;;11.30;82.30;;;;;;4948226;28;20038;-68
2023/07/31 12:26:10;;;;;;;7.47;3.13;;;11.20;82.20;;;;;;4943692;28;20038;-68
2023/07/31 12:28:49;;;;;;;7.22;3.30;;;11.10;83.10;;;;;;4951590;28;20023;-68
2023/07/31 12:31:22;;;;;;;11.00;3.42;;;11.00;83.40;;;;;;4947424;28;20410;-69
2023/07/31 12:33:51;;;;;;;4.60;3.13;;;11.20;83.50;;;;;;4944532;28;20030;-67
2023/07/31 12:36:23;;;;;;;4.90;1.90;;;11.50;82.30;;;;;;4950348;28;20097;-69
2023/07/31 12:38:52;;;;;;;3.50;1.40;;;11.40;81.00;;;;;;4948628;28;20038;-69
2023/07/31 12:41:20;;;;;;;4.90;1.55;;;11.30;80.70;;;;;;4944001;28;20035;-68
2023/07/31 12:43:47;;;;;;;3.25;1.35;;;11.40;79.90;;;;;;4947780;28;20059;-69
2023/07/31 12:46:14;;;;;;;;;;;11.40;79.50;;;;;;4952023;28;20505;-69
2023/07/31 12:48:41;;;;;;;2.22;0.85;;;11.50;78.50;;;;;;4943024;28;19966;-70
2023/07/31 12:51:09;;;;;;;4.43;1.38;;;11.60;78.40;;;;;;4966253;28;20047;-69
2023/07/31 12:53:36;;;;;;;;;;;11.60;78.30;;;;;;4951315;28;20078;-68